sensor_id;sensor_type;location;lat;lon;timestamp;P1;durP1;ratioP1;P2;durP2;ratioP2
51248;SDS011;39642;47.556;18.728;2023-05-10T00:01:31;7.20;;;2.37;;
51248;SDS011;39642;47.556;18.728;2023-05-10T00:03:56;8.02;;;2.30;;
51248;SDS011;39642;47.556;18.728;2023-05-10T00:06:22;7.37;;;2.40;;
51248;SDS011;39642;47.556;18.728;2023-05-10T00:08:48;7.87;;;2.10;;
51248;SDS011;39642;47.556;18.728;2023-05-10T00:11:14;7.10;;;2.17;;
51248;SDS011;39642;47.556;18.728;2023-05-10T00:13:40;7.07;;;2.00;;
51248;SDS011;39642;47.556;18.728;2023-05-10T00:16:06;7.50;;;2.10;;
51248;SDS011;39642;47.556;18.728;2023-05-10T00:18:32;8.05;;;2.50;;
51248;SDS011;39642;47.556;18.728;2023-05-10T00:20:57;6.93;;;2.20;;
51248;SDS011;39642;47.556;18.728;2023-05-10T00:23:23;7.60;;;2.20;;
51248;SDS011;39642;47.556;18.728;2023-05-10T00:25:49;8.40;;;2.53;;
51248;SDS011;39642;47.556;18.728;2023-05-10T00:28:15;8.25;;;2.50;;
51248;SDS011;39642;47.556;18.728;2023-05-10T00:30:41;8.00;;;2.40;;
51248;SDS011;39642;47.556;18.728;2023-05-10T00:33:07;7.50;;;2.20;;
51248;SDS011;39642;47.556;18.728;2023-05-10T00:35:32;6.85;;;2.28;;
51248;SDS011;39642;47.556;18.728;2023-05-10T00:37:59;7.10;;;2.17;;
51248;SDS011;39642;47.556;18.728;2023-05-10T00:40:25;8.15;;;2.40;;
51248;SDS011;39642;47.556;18.728;2023-05-10T00:42:51;7.00;;;2.20;;
51248;SDS011;39642;47.556;18.728;2023-05-10T00:45:17;8.30;;;2.40;;
51248;SDS011;39642;47.556;18.728;2023-05-10T00:47:43;7.65;;;2.12;;
51248;SDS011;39642;47.556;18.728;2023-05-10T00:50:09;8.55;;;2.50;;
51248;SDS011;39642;47.556;18.728;2023-05-10T00:52:35;7.25;;;2.20;;
51248;SDS011;39642;47.556;18.728;2023-05-10T00:55:01;7.15;;;2.50;;
51248;SDS011;39642;47.556;18.728;2023-05-10T00:57:28;7.93;;;2.30;;
51248;SDS011;39642;47.556;18.728;2023-05-10T00:59:54;6.80;;;2.25;;
51248;SDS011;39642;47.556;18.728;2023-05-10T01:02:20;8.63;;;2.37;;
51248;SDS011;39642;47.556;18.728;2023-05-10T01:04:46;7.20;;;2.20;;
51248;SDS011;39642;47.556;18.728;2023-05-10T01:07:12;7.90;;;2.50;;
51248;SDS011;39642;47.556;18.728;2023-05-10T01:09:38;8.65;;;2.50;;
51248;SDS011;39642;47.556;18.728;2023-05-10T01:12:04;7.78;;;2.40;;
51248;SDS011;39642;47.556;18.728;2023-05-10T01:14:32;8.52;;;2.40;;
51248;SDS011;39642;47.556;18.728;2023-05-10T01:17:00;6.60;;;2.20;;
51248;SDS011;39642;47.556;18.728;2023-05-10T01:19:26;7.93;;;2.47;;
51248;SDS011;39642;47.556;18.728;2023-05-10T01:30:08;8.23;;;2.30;;
51248;SDS011;39642;47.556;18.728;2023-05-10T01:35:10;7.68;;;2.47;;
51248;SDS011;39642;47.556;18.728;2023-05-10T01:37:45;7.45;;;2.25;;
51248;SDS011;39642;47.556;18.728;2023-05-10T01:40:30;7.45;;;2.30;;
51248;SDS011;39642;47.556;18.728;2023-05-10T01:43:04;7.70;;;2.42;;
51248;SDS011;39642;47.556;18.728;2023-05-10T01:45:58;8.52;;;2.40;;
51248;SDS011;39642;47.556;18.728;2023-05-10T01:48:26;6.85;;;2.12;;
51248;SDS011;39642;47.556;18.728;2023-05-10T01:50:54;8.63;;;2.70;;
51248;SDS011;39642;47.556;18.728;2023-05-10T01:53:22;7.80;;;2.50;;
51248;SDS011;39642;47.556;18.728;2023-05-10T01:55:50;8.80;;;2.70;;
51248;SDS011;39642;47.556;18.728;2023-05-10T01:58:25;7.85;;;2.50;;
51248;SDS011;39642;47.556;18.728;2023-05-10T02:00:55;7.70;;;2.40;;
51248;SDS011;39642;47.556;18.728;2023-05-10T02:03:26;7.55;;;2.50;;
51248;SDS011;39642;47.556;18.728;2023-05-10T02:05:54;8.15;;;2.70;;
51248;SDS011;39642;47.556;18.728;2023-05-10T02:08:22;8.13;;;2.50;;
51248;SDS011;39642;47.556;18.728;2023-05-10T02:10:50;7.43;;;2.25;;
51248;SDS011;39642;47.556;18.728;2023-05-10T02:13:19;7.68;;;2.50;;
51248;SDS011;39642;47.556;18.728;2023-05-10T02:15:48;7.57;;;2.22;;
51248;SDS011;39642;47.556;18.728;2023-05-10T02:18:15;6.70;;;2.25;;
51248;SDS011;39642;47.556;18.728;2023-05-10T02:20:43;8.57;;;2.47;;
51248;SDS011;39642;47.556;18.728;2023-05-10T02:23:11;7.28;;;2.58;;
51248;SDS011;39642;47.556;18.728;2023-05-10T02:25:38;8.40;;;2.40;;
51248;SDS011;39642;47.556;18.728;2023-05-10T02:28:06;8.45;;;2.60;;
51248;SDS011;39642;47.556;18.728;2023-05-10T02:30:33;6.85;;;2.40;;
51248;SDS011;39642;47.556;18.728;2023-05-10T02:33:00;7.43;;;2.40;;
51248;SDS011;39642;47.556;18.728;2023-05-10T02:35:28;8.77;;;2.47;;
51248;SDS011;39642;47.556;18.728;2023-05-10T02:37:54;7.55;;;2.40;;
51248;SDS011;39642;47.556;18.728;2023-05-10T02:40:22;6.87;;;2.28;;
51248;SDS011;39642;47.556;18.728;2023-05-10T02:42:50;7.82;;;2.33;;
51248;SDS011;39642;47.556;18.728;2023-05-10T02:45:20;7.62;;;2.45;;
51248;SDS011;39642;47.556;18.728;2023-05-10T02:47:49;8.13;;;2.40;;
51248;SDS011;39642;47.556;18.728;2023-05-10T02:50:15;8.15;;;2.30;;
51248;SDS011;39642;47.556;18.728;2023-05-10T02:52:47;7.35;;;2.35;;
51248;SDS011;39642;47.556;18.728;2023-05-10T02:55:21;8.50;;;2.40;;
51248;SDS011;39642;47.556;18.728;2023-05-10T02:57:52;7.78;;;2.33;;
51248;SDS011;39642;47.556;18.728;2023-05-10T03:00:24;8.52;;;2.40;;
51248;SDS011;39642;47.556;18.728;2023-05-10T03:02:51;7.50;;;2.35;;
51248;SDS011;39642;47.556;18.728;2023-05-10T03:05:17;9.10;;;2.50;;
51248;SDS011;39642;47.556;18.728;2023-05-10T03:07:43;6.85;;;2.42;;
51248;SDS011;39642;47.556;18.728;2023-05-10T03:10:10;8.45;;;2.42;;
51248;SDS011;39642;47.556;18.728;2023-05-10T03:18:22;9.18;;;2.47;;
51248;SDS011;39642;47.556;18.728;2023-05-10T03:21:01;7.97;;;2.33;;
51248;SDS011;39642;47.556;18.728;2023-05-10T03:26:05;8.00;;;2.40;;
51248;SDS011;39642;47.556;18.728;2023-05-10T03:28:33;7.03;;;2.22;;
51248;SDS011;39642;47.556;18.728;2023-05-10T03:31:00;8.35;;;2.50;;
51248;SDS011;39642;47.556;18.728;2023-05-10T03:33:28;10.13;;;2.58;;
51248;SDS011;39642;47.556;18.728;2023-05-10T03:35:54;8.02;;;2.35;;
51248;SDS011;39642;47.556;18.728;2023-05-10T03:38:20;8.93;;;2.42;;
51248;SDS011;39642;47.556;18.728;2023-05-10T03:40:46;7.97;;;2.30;;
51248;SDS011;39642;47.556;18.728;2023-05-10T03:43:12;8.48;;;2.37;;
51248;SDS011;39642;47.556;18.728;2023-05-10T03:45:38;9.30;;;2.55;;
51248;SDS011;39642;47.556;18.728;2023-05-10T03:48:03;8.70;;;2.37;;
51248;SDS011;39642;47.556;18.728;2023-05-10T03:50:30;6.65;;;2.10;;
51248;SDS011;39642;47.556;18.728;2023-05-10T03:52:55;7.62;;;2.33;;
51248;SDS011;39642;47.556;18.728;2023-05-10T03:55:23;8.27;;;2.58;;
51248;SDS011;39642;47.556;18.728;2023-05-10T03:57:49;8.00;;;2.60;;
51248;SDS011;39642;47.556;18.728;2023-05-10T04:00:19;8.20;;;2.35;;
51248;SDS011;39642;47.556;18.728;2023-05-10T04:02:45;7.72;;;2.42;;
51248;SDS011;39642;47.556;18.728;2023-05-10T04:05:11;7.82;;;2.50;;
51248;SDS011;39642;47.556;18.728;2023-05-10T04:07:37;9.55;;;2.70;;
51248;SDS011;39642;47.556;18.728;2023-05-10T04:10:03;7.87;;;2.30;;
51248;SDS011;39642;47.556;18.728;2023-05-10T04:12:29;8.02;;;2.60;;
51248;SDS011;39642;47.556;18.728;2023-05-10T04:14:55;7.72;;;2.35;;
51248;SDS011;39642;47.556;18.728;2023-05-10T04:17:20;6.87;;;2.50;;
51248;SDS011;39642;47.556;18.728;2023-05-10T04:19:46;7.80;;;2.45;;
51248;SDS011;39642;47.556;18.728;2023-05-10T04:22:12;9.82;;;2.40;;
51248;SDS011;39642;47.556;18.728;2023-05-10T04:24:38;7.80;;;2.40;;
51248;SDS011;39642;47.556;18.728;2023-05-10T04:27:04;6.97;;;2.45;;
51248;SDS011;39642;47.556;18.728;2023-05-10T04:29:30;8.57;;;2.47;;
51248;SDS011;39642;47.556;18.728;2023-05-10T04:31:56;8.30;;;2.33;;
51248;SDS011;39642;47.556;18.728;2023-05-10T04:34:22;8.27;;;2.42;;
51248;SDS011;39642;47.556;18.728;2023-05-10T04:36:48;8.20;;;2.50;;
51248;SDS011;39642;47.556;18.728;2023-05-10T04:39:14;7.32;;;2.35;;
51248;SDS011;39642;47.556;18.728;2023-05-10T04:41:39;8.05;;;2.10;;
51248;SDS011;39642;47.556;18.728;2023-05-10T04:44:05;8.18;;;2.20;;
51248;SDS011;39642;47.556;18.728;2023-05-10T04:46:31;7.30;;;2.35;;
51248;SDS011;39642;47.556;18.728;2023-05-10T04:48:57;9.27;;;2.85;;
51248;SDS011;39642;47.556;18.728;2023-05-10T04:51:23;8.50;;;2.75;;
51248;SDS011;39642;47.556;18.728;2023-05-10T04:53:49;10.90;;;2.60;;
51248;SDS011;39642;47.556;18.728;2023-05-10T04:56:15;9.07;;;2.25;;
51248;SDS011;39642;47.556;18.728;2023-05-10T04:58:41;9.43;;;2.60;;
51248;SDS011;39642;47.556;18.728;2023-05-10T05:01:07;8.90;;;2.60;;
51248;SDS011;39642;47.556;18.728;2023-05-10T05:03:34;8.82;;;2.50;;
51248;SDS011;39642;47.556;18.728;2023-05-10T05:06:00;13.25;;;2.83;;
51248;SDS011;39642;47.556;18.728;2023-05-10T05:08:26;9.55;;;2.70;;
51248;SDS011;39642;47.556;18.728;2023-05-10T05:10:52;12.68;;;3.40;;
51248;SDS011;39642;47.556;18.728;2023-05-10T05:13:18;10.90;;;3.40;;
51248;SDS011;39642;47.556;18.728;2023-05-10T05:15:44;13.75;;;3.42;;
51248;SDS011;39642;47.556;18.728;2023-05-10T05:18:10;10.30;;;3.15;;
51248;SDS011;39642;47.556;18.728;2023-05-10T05:20:36;11.77;;;3.60;;
51248;SDS011;39642;47.556;18.728;2023-05-10T05:23:02;35.03;;;7.03;;
51248;SDS011;39642;47.556;18.728;2023-05-10T05:25:27;15.32;;;4.07;;
51248;SDS011;39642;47.556;18.728;2023-05-10T05:27:53;38.17;;;10.30;;
51248;SDS011;39642;47.556;18.728;2023-05-10T05:30:19;36.97;;;8.43;;
51248;SDS011;39642;47.556;18.728;2023-05-10T05:32:45;23.12;;;5.80;;
51248;SDS011;39642;47.556;18.728;2023-05-10T05:35:12;15.38;;;4.30;;
51248;SDS011;39642;47.556;18.728;2023-05-10T05:37:38;16.85;;;5.45;;
51248;SDS011;39642;47.556;18.728;2023-05-10T05:40:04;24.40;;;7.53;;
51248;SDS011;39642;47.556;18.728;2023-05-10T05:42:31;16.42;;;4.28;;
51248;SDS011;39642;47.556;18.728;2023-05-10T05:44:57;29.05;;;7.95;;
51248;SDS011;39642;47.556;18.728;2023-05-10T05:47:23;28.12;;;5.72;;
51248;SDS011;39642;47.556;18.728;2023-05-10T05:49:50;23.00;;;6.03;;
51248;SDS011;39642;47.556;18.728;2023-05-10T05:52:16;21.27;;;5.70;;
51248;SDS011;39642;47.556;18.728;2023-05-10T05:54:42;22.83;;;6.50;;
51248;SDS011;39642;47.556;18.728;2023-05-10T05:57:08;30.05;;;6.12;;
51248;SDS011;39642;47.556;18.728;2023-05-10T05:59:34;23.98;;;6.15;;
51248;SDS011;39642;47.556;18.728;2023-05-10T06:02:00;25.10;;;5.93;;
51248;SDS011;39642;47.556;18.728;2023-05-10T06:04:26;21.65;;;5.12;;
51248;SDS011;39642;47.556;18.728;2023-05-10T06:06:53;28.25;;;5.37;;
51248;SDS011;39642;47.556;18.728;2023-05-10T06:09:19;22.98;;;4.68;;
51248;SDS011;39642;47.556;18.728;2023-05-10T06:11:45;21.17;;;4.72;;
51248;SDS011;39642;47.556;18.728;2023-05-10T06:14:11;27.17;;;5.25;;
51248;SDS011;39642;47.556;18.728;2023-05-10T06:16:37;15.88;;;4.28;;
51248;SDS011;39642;47.556;18.728;2023-05-10T06:19:02;26.90;;;5.40;;
51248;SDS011;39642;47.556;18.728;2023-05-10T06:21:28;22.08;;;4.72;;
51248;SDS011;39642;47.556;18.728;2023-05-10T06:23:55;16.12;;;4.25;;
51248;SDS011;39642;47.556;18.728;2023-05-10T06:26:21;19.35;;;4.55;;
51248;SDS011;39642;47.556;18.728;2023-05-10T06:28:47;23.00;;;4.93;;
51248;SDS011;39642;47.556;18.728;2023-05-10T06:31:13;20.35;;;4.50;;
51248;SDS011;39642;47.556;18.728;2023-05-10T06:33:39;16.67;;;3.97;;
51248;SDS011;39642;47.556;18.728;2023-05-10T06:36:04;18.77;;;4.47;;
51248;SDS011;39642;47.556;18.728;2023-05-10T06:38:30;15.27;;;3.67;;
51248;SDS011;39642;47.556;18.728;2023-05-10T06:40:56;19.00;;;4.00;;
51248;SDS011;39642;47.556;18.728;2023-05-10T06:43:22;24.30;;;4.47;;
51248;SDS011;39642;47.556;18.728;2023-05-10T06:45:50;17.95;;;3.78;;
51248;SDS011;39642;47.556;18.728;2023-05-10T06:48:16;12.52;;;3.33;;
51248;SDS011;39642;47.556;18.728;2023-05-10T06:50:42;22.42;;;4.32;;
51248;SDS011;39642;47.556;18.728;2023-05-10T06:53:08;26.20;;;4.55;;
51248;SDS011;39642;47.556;18.728;2023-05-10T06:55:36;18.92;;;4.10;;
51248;SDS011;39642;47.556;18.728;2023-05-10T06:58:02;25.30;;;4.82;;
51248;SDS011;39642;47.556;18.728;2023-05-10T07:00:28;32.30;;;5.18;;
51248;SDS011;39642;47.556;18.728;2023-05-10T07:02:54;31.00;;;5.00;;
51248;SDS011;39642;47.556;18.728;2023-05-10T07:05:20;32.55;;;4.68;;
51248;SDS011;39642;47.556;18.728;2023-05-10T07:07:46;33.03;;;5.03;;
51248;SDS011;39642;47.556;18.728;2023-05-10T07:10:12;29.52;;;4.90;;
51248;SDS011;39642;47.556;18.728;2023-05-10T07:12:38;24.30;;;4.20;;
51248;SDS011;39642;47.556;18.728;2023-05-10T07:15:05;25.92;;;4.05;;
51248;SDS011;39642;47.556;18.728;2023-05-10T07:17:31;20.20;;;4.20;;
51248;SDS011;39642;47.556;18.728;2023-05-10T07:19:59;18.95;;;4.37;;
51248;SDS011;39642;47.556;18.728;2023-05-10T07:22:27;20.17;;;3.90;;
51248;SDS011;39642;47.556;18.728;2023-05-10T07:25:08;25.55;;;4.47;;
51248;SDS011;39642;47.556;18.728;2023-05-10T07:27:34;24.23;;;3.90;;
51248;SDS011;39642;47.556;18.728;2023-05-10T07:30:00;28.58;;;4.40;;
51248;SDS011;39642;47.556;18.728;2023-05-10T07:32:27;25.45;;;4.57;;
51248;SDS011;39642;47.556;18.728;2023-05-10T07:34:53;17.35;;;3.72;;
51248;SDS011;39642;47.556;18.728;2023-05-10T07:37:18;18.30;;;3.40;;
51248;SDS011;39642;47.556;18.728;2023-05-10T07:39:44;24.67;;;4.05;;
51248;SDS011;39642;47.556;18.728;2023-05-10T07:42:10;21.83;;;3.58;;
51248;SDS011;39642;47.556;18.728;2023-05-10T07:44:36;25.40;;;4.25;;
51248;SDS011;39642;47.556;18.728;2023-05-10T07:47:02;29.08;;;4.50;;
51248;SDS011;39642;47.556;18.728;2023-05-10T07:49:32;23.52;;;3.90;;
51248;SDS011;39642;47.556;18.728;2023-05-10T07:52:04;26.42;;;4.20;;
51248;SDS011;39642;47.556;18.728;2023-05-10T07:54:30;29.75;;;3.83;;
51248;SDS011;39642;47.556;18.728;2023-05-10T07:56:56;25.70;;;4.10;;
51248;SDS011;39642;47.556;18.728;2023-05-10T07:59:22;28.50;;;4.72;;
51248;SDS011;39642;47.556;18.728;2023-05-10T08:01:48;27.40;;;4.10;;
51248;SDS011;39642;47.556;18.728;2023-05-10T08:04:14;26.83;;;4.00;;
51248;SDS011;39642;47.556;18.728;2023-05-10T08:06:40;27.27;;;4.25;;
51248;SDS011;39642;47.556;18.728;2023-05-10T08:09:06;26.92;;;4.43;;
51248;SDS011;39642;47.556;18.728;2023-05-10T08:11:31;24.05;;;4.32;;
51248;SDS011;39642;47.556;18.728;2023-05-10T08:13:58;21.02;;;3.90;;
51248;SDS011;39642;47.556;18.728;2023-05-10T08:16:24;16.12;;;3.53;;
51248;SDS011;39642;47.556;18.728;2023-05-10T08:18:50;17.25;;;3.47;;
51248;SDS011;39642;47.556;18.728;2023-05-10T08:21:16;19.85;;;3.45;;
51248;SDS011;39642;47.556;18.728;2023-05-10T08:23:42;17.42;;;3.40;;
51248;SDS011;39642;47.556;18.728;2023-05-10T08:26:09;17.33;;;3.40;;
51248;SDS011;39642;47.556;18.728;2023-05-10T08:28:35;12.85;;;3.22;;
51248;SDS011;39642;47.556;18.728;2023-05-10T08:31:01;11.93;;;3.35;;
51248;SDS011;39642;47.556;18.728;2023-05-10T08:33:27;17.58;;;3.37;;
51248;SDS011;39642;47.556;18.728;2023-05-10T08:35:52;16.67;;;3.55;;
51248;SDS011;39642;47.556;18.728;2023-05-10T08:38:18;18.35;;;3.62;;
51248;SDS011;39642;47.556;18.728;2023-05-10T08:40:44;16.67;;;3.80;;
51248;SDS011;39642;47.556;18.728;2023-05-10T08:43:11;19.77;;;3.53;;
51248;SDS011;39642;47.556;18.728;2023-05-10T08:45:39;22.83;;;3.75;;
51248;SDS011;39642;47.556;18.728;2023-05-10T08:48:07;32.70;;;4.68;;
51248;SDS011;39642;47.556;18.728;2023-05-10T08:50:40;34.92;;;4.50;;
51248;SDS011;39642;47.556;18.728;2023-05-10T08:53:12;49.25;;;5.18;;
51248;SDS011;39642;47.556;18.728;2023-05-10T08:55:40;23.35;;;4.12;;
51248;SDS011;39642;47.556;18.728;2023-05-10T08:58:08;28.95;;;4.97;;
51248;SDS011;39642;47.556;18.728;2023-05-10T09:00:35;32.00;;;5.00;;
51248;SDS011;39642;47.556;18.728;2023-05-10T09:03:03;23.23;;;5.00;;
51248;SDS011;39642;47.556;18.728;2023-05-10T09:05:29;18.95;;;4.25;;
51248;SDS011;39642;47.556;18.728;2023-05-10T09:07:55;29.75;;;4.37;;
51248;SDS011;39642;47.556;18.728;2023-05-10T09:10:21;15.40;;;3.92;;
51248;SDS011;39642;47.556;18.728;2023-05-10T09:12:51;22.70;;;4.25;;
51248;SDS011;39642;47.556;18.728;2023-05-10T09:15:19;22.62;;;4.10;;
51248;SDS011;39642;47.556;18.728;2023-05-10T09:17:46;21.90;;;4.40;;
51248;SDS011;39642;47.556;18.728;2023-05-10T09:20:14;28.60;;;4.60;;
51248;SDS011;39642;47.556;18.728;2023-05-10T09:22:41;25.58;;;4.43;;
51248;SDS011;39642;47.556;18.728;2023-05-10T09:25:10;30.83;;;4.80;;
51248;SDS011;39642;47.556;18.728;2023-05-10T09:27:38;24.15;;;4.25;;
51248;SDS011;39642;47.556;18.728;2023-05-10T09:30:06;24.98;;;4.78;;
51248;SDS011;39642;47.556;18.728;2023-05-10T09:32:43;17.05;;;4.25;;
51248;SDS011;39642;47.556;18.728;2023-05-10T09:35:17;22.45;;;4.07;;
51248;SDS011;39642;47.556;18.728;2023-05-10T09:37:45;18.25;;;4.07;;
51248;SDS011;39642;47.556;18.728;2023-05-10T09:40:18;17.17;;;3.70;;
51248;SDS011;39642;47.556;18.728;2023-05-10T09:43:01;40.20;;;5.45;;
51248;SDS011;39642;47.556;18.728;2023-05-10T09:45:30;18.67;;;4.30;;
51248;SDS011;39642;47.556;18.728;2023-05-10T09:47:57;18.80;;;4.00;;
51248;SDS011;39642;47.556;18.728;2023-05-10T09:50:24;23.70;;;4.97;;
51248;SDS011;39642;47.556;18.728;2023-05-10T09:52:54;23.38;;;4.80;;
51248;SDS011;39642;47.556;18.728;2023-05-10T09:55:47;27.20;;;4.65;;
51248;SDS011;39642;47.556;18.728;2023-05-10T09:58:14;39.63;;;5.72;;
51248;SDS011;39642;47.556;18.728;2023-05-10T10:00:41;26.90;;;5.05;;
51248;SDS011;39642;47.556;18.728;2023-05-10T10:03:12;22.77;;;4.70;;
51248;SDS011;39642;47.556;18.728;2023-05-10T10:05:40;27.62;;;5.10;;
51248;SDS011;39642;47.556;18.728;2023-05-10T10:08:09;28.65;;;5.50;;
51248;SDS011;39642;47.556;18.728;2023-05-10T10:10:35;29.92;;;4.90;;
51248;SDS011;39642;47.556;18.728;2023-05-10T10:13:01;27.85;;;5.28;;
51248;SDS011;39642;47.556;18.728;2023-05-10T10:15:28;18.20;;;5.87;;
51248;SDS011;39642;47.556;18.728;2023-05-10T10:17:53;23.15;;;4.60;;
51248;SDS011;39642;47.556;18.728;2023-05-10T10:20:20;22.75;;;7.20;;
51248;SDS011;39642;47.556;18.728;2023-05-10T10:22:48;19.02;;;4.93;;
51248;SDS011;39642;47.556;18.728;2023-05-10T10:25:15;25.33;;;4.32;;
51248;SDS011;39642;47.556;18.728;2023-05-10T10:30:37;18.92;;;4.47;;
51248;SDS011;39642;47.556;18.728;2023-05-10T10:35:55;25.90;;;4.60;;
51248;SDS011;39642;47.556;18.728;2023-05-10T10:38:24;25.52;;;4.00;;
51248;SDS011;39642;47.556;18.728;2023-05-10T10:41:09;26.33;;;4.57;;
51248;SDS011;39642;47.556;18.728;2023-05-10T10:47:06;20.50;;;3.97;;
51248;SDS011;39642;47.556;18.728;2023-05-10T10:49:48;26.40;;;5.18;;
51248;SDS011;39642;47.556;18.728;2023-05-10T10:57:43;34.58;;;5.60;;
51248;SDS011;39642;47.556;18.728;2023-05-10T11:02:50;47.80;;;5.82;;
51248;SDS011;39642;47.556;18.728;2023-05-10T11:08:09;32.70;;;5.68;;
51248;SDS011;39642;47.556;18.728;2023-05-10T11:10:51;33.05;;;5.72;;
51248;SDS011;39642;47.556;18.728;2023-05-10T11:15:52;39.45;;;5.95;;
51248;SDS011;39642;47.556;18.728;2023-05-10T11:18:20;23.50;;;4.47;;
51248;SDS011;39642;47.556;18.728;2023-05-10T11:20:52;26.73;;;5.22;;
51248;SDS011;39642;47.556;18.728;2023-05-10T11:25:59;19.02;;;4.20;;
51248;SDS011;39642;47.556;18.728;2023-05-10T11:28:27;13.93;;;3.75;;
51248;SDS011;39642;47.556;18.728;2023-05-10T11:30:53;30.60;;;5.20;;
51248;SDS011;39642;47.556;18.728;2023-05-10T11:33:20;24.45;;;4.47;;
51248;SDS011;39642;47.556;18.728;2023-05-10T11:35:47;28.02;;;4.90;;
51248;SDS011;39642;47.556;18.728;2023-05-10T11:38:13;26.55;;;4.93;;
51248;SDS011;39642;47.556;18.728;2023-05-10T11:40:40;18.50;;;3.80;;
51248;SDS011;39642;47.556;18.728;2023-05-10T11:43:06;21.37;;;4.70;;
51248;SDS011;39642;47.556;18.728;2023-05-10T11:45:35;13.62;;;3.17;;
51248;SDS011;39642;47.556;18.728;2023-05-10T11:48:02;16.58;;;3.70;;
51248;SDS011;39642;47.556;18.728;2023-05-10T11:50:28;19.20;;;3.65;;
51248;SDS011;39642;47.556;18.728;2023-05-10T11:52:55;16.37;;;3.70;;
51248;SDS011;39642;47.556;18.728;2023-05-10T11:55:22;20.40;;;3.90;;
51248;SDS011;39642;47.556;18.728;2023-05-10T11:57:53;19.23;;;3.80;;
51248;SDS011;39642;47.556;18.728;2023-05-10T12:00:19;21.62;;;3.40;;
51248;SDS011;39642;47.556;18.728;2023-05-10T12:02:46;22.58;;;3.42;;
51248;SDS011;39642;47.556;18.728;2023-05-10T12:05:15;16.62;;;2.97;;
51248;SDS011;39642;47.556;18.728;2023-05-10T12:07:41;16.30;;;2.80;;
51248;SDS011;39642;47.556;18.728;2023-05-10T12:10:08;16.65;;;3.28;;
51248;SDS011;39642;47.556;18.728;2023-05-10T12:12:42;13.07;;;2.67;;
51248;SDS011;39642;47.556;18.728;2023-05-10T12:15:18;13.60;;;2.85;;
51248;SDS011;39642;47.556;18.728;2023-05-10T12:17:46;17.85;;;3.15;;
51248;SDS011;39642;47.556;18.728;2023-05-10T12:20:13;13.82;;;3.37;;
51248;SDS011;39642;47.556;18.728;2023-05-10T12:22:40;15.45;;;3.28;;
51248;SDS011;39642;47.556;18.728;2023-05-10T12:25:06;12.98;;;2.80;;
51248;SDS011;39642;47.556;18.728;2023-05-10T12:27:34;23.30;;;3.60;;
51248;SDS011;39642;47.556;18.728;2023-05-10T12:30:00;34.00;;;4.53;;
51248;SDS011;39642;47.556;18.728;2023-05-10T12:32:37;24.80;;;3.30;;
51248;SDS011;39642;47.556;18.728;2023-05-10T12:35:04;20.50;;;3.42;;
51248;SDS011;39642;47.556;18.728;2023-05-10T12:37:30;17.37;;;3.30;;
51248;SDS011;39642;47.556;18.728;2023-05-10T12:39:56;18.42;;;3.58;;
51248;SDS011;39642;47.556;18.728;2023-05-10T12:42:22;16.48;;;2.53;;
51248;SDS011;39642;47.556;18.728;2023-05-10T12:44:54;14.23;;;2.60;;
51248;SDS011;39642;47.556;18.728;2023-05-10T12:47:21;14.43;;;2.80;;
51248;SDS011;39642;47.556;18.728;2023-05-10T12:49:47;10.07;;;2.60;;
51248;SDS011;39642;47.556;18.728;2023-05-10T12:52:13;10.43;;;2.55;;
51248;SDS011;39642;47.556;18.728;2023-05-10T12:54:39;11.82;;;2.75;;
51248;SDS011;39642;47.556;18.728;2023-05-10T12:57:04;12.82;;;2.47;;
51248;SDS011;39642;47.556;18.728;2023-05-10T12:59:30;15.23;;;3.15;;
51248;SDS011;39642;47.556;18.728;2023-05-10T13:01:56;22.83;;;3.55;;
51248;SDS011;39642;47.556;18.728;2023-05-10T13:04:23;14.32;;;3.00;;
51248;SDS011;39642;47.556;18.728;2023-05-10T13:06:49;20.80;;;3.85;;
51248;SDS011;39642;47.556;18.728;2023-05-10T13:09:15;152.07;;;11.63;;
51248;SDS011;39642;47.556;18.728;2023-05-10T13:11:41;12.93;;;2.80;;
51248;SDS011;39642;47.556;18.728;2023-05-10T13:14:07;10.77;;;2.70;;
51248;SDS011;39642;47.556;18.728;2023-05-10T13:16:33;37.78;;;4.82;;
51248;SDS011;39642;47.556;18.728;2023-05-10T13:18:59;23.23;;;2.58;;
51248;SDS011;39642;47.556;18.728;2023-05-10T13:21:25;19.50;;;3.83;;
51248;SDS011;39642;47.556;18.728;2023-05-10T13:23:51;20.48;;;3.20;;
51248;SDS011;39642;47.556;18.728;2023-05-10T13:26:17;53.83;;;5.82;;
51248;SDS011;39642;47.556;18.728;2023-05-10T13:28:43;22.80;;;3.40;;
51248;SDS011;39642;47.556;18.728;2023-05-10T13:31:08;19.70;;;3.10;;
51248;SDS011;39642;47.556;18.728;2023-05-10T13:33:34;17.45;;;2.95;;
51248;SDS011;39642;47.556;18.728;2023-05-10T13:36:00;18.40;;;2.87;;
51248;SDS011;39642;47.556;18.728;2023-05-10T13:38:26;21.17;;;3.10;;
51248;SDS011;39642;47.556;18.728;2023-05-10T13:40:52;16.90;;;2.90;;
51248;SDS011;39642;47.556;18.728;2023-05-10T13:43:18;17.25;;;2.85;;
51248;SDS011;39642;47.556;18.728;2023-05-10T13:45:44;19.17;;;3.17;;
51248;SDS011;39642;47.556;18.728;2023-05-10T13:48:10;36.83;;;4.43;;
51248;SDS011;39642;47.556;18.728;2023-05-10T13:50:36;32.22;;;4.47;;
51248;SDS011;39642;47.556;18.728;2023-05-10T13:53:02;29.12;;;4.00;;
51248;SDS011;39642;47.556;18.728;2023-05-10T13:55:28;23.42;;;2.95;;
51248;SDS011;39642;47.556;18.728;2023-05-10T13:57:54;33.90;;;3.95;;
51248;SDS011;39642;47.556;18.728;2023-05-10T14:00:23;20.90;;;3.22;;
51248;SDS011;39642;47.556;18.728;2023-05-10T14:02:50;21.92;;;3.72;;
51248;SDS011;39642;47.556;18.728;2023-05-10T14:05:16;30.70;;;3.83;;
51248;SDS011;39642;47.556;18.728;2023-05-10T14:07:42;39.97;;;4.03;;
51248;SDS011;39642;47.556;18.728;2023-05-10T14:10:08;23.27;;;3.78;;
51248;SDS011;39642;47.556;18.728;2023-05-10T14:12:34;11.48;;;2.80;;
51248;SDS011;39642;47.556;18.728;2023-05-10T14:15:00;13.98;;;2.78;;
51248;SDS011;39642;47.556;18.728;2023-05-10T14:17:26;17.02;;;2.97;;
51248;SDS011;39642;47.556;18.728;2023-05-10T14:19:52;12.48;;;2.55;;
51248;SDS011;39642;47.556;18.728;2023-05-10T14:22:18;9.52;;;2.33;;
51248;SDS011;39642;47.556;18.728;2023-05-10T14:24:44;12.98;;;2.67;;
51248;SDS011;39642;47.556;18.728;2023-05-10T14:27:12;8.98;;;2.28;;
51248;SDS011;39642;47.556;18.728;2023-05-10T14:29:38;13.70;;;2.30;;
51248;SDS011;39642;47.556;18.728;2023-05-10T14:32:04;13.43;;;2.83;;
51248;SDS011;39642;47.556;18.728;2023-05-10T14:34:30;11.95;;;2.58;;
51248;SDS011;39642;47.556;18.728;2023-05-10T14:36:56;11.23;;;2.53;;
51248;SDS011;39642;47.556;18.728;2023-05-10T14:39:22;12.95;;;2.65;;
51248;SDS011;39642;47.556;18.728;2023-05-10T14:41:48;9.02;;;2.30;;
51248;SDS011;39642;47.556;18.728;2023-05-10T14:44:14;13.02;;;2.35;;
51248;SDS011;39642;47.556;18.728;2023-05-10T14:46:40;13.77;;;2.65;;
51248;SDS011;39642;47.556;18.728;2023-05-10T14:49:07;9.52;;;2.30;;
51248;SDS011;39642;47.556;18.728;2023-05-10T14:51:33;11.25;;;2.45;;
51248;SDS011;39642;47.556;18.728;2023-05-10T14:53:59;10.95;;;2.50;;
51248;SDS011;39642;47.556;18.728;2023-05-10T14:56:25;11.90;;;2.35;;
51248;SDS011;39642;47.556;18.728;2023-05-10T14:58:53;11.27;;;2.60;;
51248;SDS011;39642;47.556;18.728;2023-05-10T15:01:19;9.68;;;2.45;;
51248;SDS011;39642;47.556;18.728;2023-05-10T15:03:45;12.25;;;2.40;;
51248;SDS011;39642;47.556;18.728;2023-05-10T15:06:13;14.25;;;2.70;;
51248;SDS011;39642;47.556;18.728;2023-05-10T15:08:40;12.82;;;2.78;;
51248;SDS011;39642;47.556;18.728;2023-05-10T15:11:06;12.70;;;2.50;;